createdAt,value
2018-03-22T00:00:13.926Z,58.5
2018-03-22T00:13:05.034Z,58.8
2018-03-22T00:27:08.275Z,58.7
2018-03-22T00:40:45.440Z,58.8
2018-03-22T00:53:58.179Z,59.5
2018-03-22T01:07:16.804Z,59.4
2018-03-22T01:21:00.231Z,60.1
2018-03-22T01:34:39.809Z,60.3
2018-03-22T01:49:02.932Z,62.0
2018-03-22T02:02:23.201Z,61.4
2018-03-22T02:29:25.238Z,61.9
2018-03-22T03:00:36.485Z,63.6
2018-03-22T03:13:44.340Z,64.5
2018-03-22T03:27:54.689Z,65.2
2018-03-22T03:41:25.628Z,65.0
2018-03-22T03:55:14.450Z,68.0
2018-03-22T04:08:36.372Z,66.9
2018-03-22T04:21:20.996Z,67.3
2018-03-22T04:34:42.329Z,67.4
2018-03-22T05:15:52.976Z,68.0
2018-03-22T05:30:33.306Z,69.8
2018-03-22T05:43:04.072Z,69.3
2018-03-22T06:23:21.725Z,69.7
2018-03-22T06:51:03.175Z,69.5
2018-03-22T07:17:16.499Z,71.1
2018-03-22T07:42:28.710Z,71.8
2018-03-22T07:55:30.263Z,70.8
2018-03-22T08:05:45.258Z,71.9
2018-03-22T08:16:34.605Z,71.4
2018-03-22T08:38:55.301Z,69.7
2018-03-22T08:49:11.186Z,70.5
2018-03-22T09:00:00.580Z,70.9
2018-03-22T09:10:16.073Z,70.7
2018-03-22T09:20:31.329Z,69.7
2018-03-22T09:31:24.911Z,70.0
2018-03-22T09:41:40.422Z,69.3
2018-03-22T09:53:29.054Z,69.7
2018-03-22T10:03:44.038Z,69.8
2018-03-22T10:15:13.021Z,70.4
2018-03-22T10:29:14.934Z,72.9
2018-03-22T10:39:29.434Z,74.5
2018-03-22T10:49:44.444Z,71.4
2018-03-22T11:13:29.274Z,66.9
2018-03-22T11:36:36.287Z,66.3
2018-03-22T11:46:50.951Z,67.7
2018-03-22T11:57:05.368Z,65.8
2018-03-22T12:07:19.856Z,64.2
2018-03-22T12:17:35.453Z,63.7
2018-03-22T12:27:50.981Z,63.9
2018-03-22T12:38:06.173Z,63.8
2018-03-22T13:00:30.288Z,63.7
2018-03-22T13:10:46.326Z,63.8
2018-03-22T13:21:02.105Z,63.8
2018-03-22T13:34:00.191Z,63.7
2018-03-22T13:44:15.328Z,63.4
2018-03-22T14:00:05.455Z,63.3
2018-03-22T14:13:19.434Z,63.0
2018-03-22T14:24:11.603Z,64.1
2018-03-22T14:35:01.544Z,63.9
2018-03-22T14:47:18.112Z,63.6
2018-03-22T14:58:28.370Z,63.6
2018-03-22T15:08:43.808Z,63.7
2018-03-22T15:19:48.740Z,64.2
2018-03-22T15:30:04.161Z,64.6
2018-03-22T15:40:19.140Z,64.6
2018-03-22T15:51:09.804Z,64.4
2018-03-22T16:02:43.405Z,64.5
2018-03-22T16:12:58.621Z,64.0
2018-03-22T16:24:03.025Z,64.1
2018-03-22T16:34:55.805Z,63.6
2018-03-22T16:45:59.133Z,63.7
2018-03-22T16:56:20.006Z,63.7
2018-03-22T17:07:26.341Z,63.9
2018-03-22T17:18:42.570Z,63.4
2018-03-22T17:29:06.674Z,63.7
2018-03-22T17:39:20.737Z,63.5
2018-03-22T18:08:35.889Z,63.5
2018-03-22T18:18:51.296Z,63.8
2018-03-22T18:30:54.434Z,63.6
2018-03-22T18:45:34.171Z,63.3
2018-03-22T18:59:06.767Z,63.4
2018-03-22T19:12:32.826Z,63.6
2018-03-22T19:26:37.263Z,64.0
2018-03-22T19:38:29.302Z,63.3
2018-03-22T19:49:14.584Z,63.3
2018-03-22T20:02:06.029Z,63.8
2018-03-22T20:12:20.655Z,63.5
2018-03-22T20:23:06.867Z,63.5
2018-03-22T20:33:19.123Z,63.4
2018-03-22T20:44:05.358Z,64.7
2018-03-22T20:54:50.362Z,65.0
2018-03-22T21:05:41.168Z,64.6
2018-03-22T21:18:13.459Z,66.1
2018-03-22T21:43:42.363Z,65.3
2018-03-22T21:56:42.287Z,64.5
2018-03-22T22:06:56.370Z,65.0
2018-03-22T22:17:41.384Z,65.8
2018-03-22T22:27:55.007Z,65.7
2018-03-22T22:38:09.613Z,64.7
2018-03-22T22:48:23.930Z,64.6
2018-03-22T22:59:09.371Z,64.2
2018-03-22T23:09:23.601Z,63.9
2018-03-22T23:20:09.122Z,63.7
2018-03-22T23:30:55.758Z,63.8
2018-03-22T23:41:41.756Z,63.6
2018-03-22T23:52:28.577Z,63.7
